Aviation Digital Data Service (ADDS)

Output produced by METARs form (0306 UTC 16 August 2018)
found at http://www.aviationweather.gov/adds/metars/
 
FCBB 160200Z 25003KT 8000 NSC 22/19 Q1016 NOSIG
TAF FCBB 152300Z 1600/1706 24006KT 8000 BKN020
       
FCPP 160200Z VRB01KT 8000 FEW009 21/20 Q1015 NOSIG
TAF FCPP 152300Z 1600/1624 18006KT 8000 SCT010 BKN023